createdAt,value
2023-01-21T00:01:48.739Z,28.50
2023-01-21T00:04:55.623Z,35.90
2023-01-21T00:08:02.915Z,28.80
2023-01-21T00:11:11.578Z,26.20
2023-01-21T00:14:18.409Z,27.60
2023-01-21T00:17:25.292Z,26.80
2023-01-21T00:20:32.056Z,30.60
2023-01-21T00:23:38.981Z,29.20
2023-01-21T00:26:46.096Z,26.60
2023-01-21T00:29:53.053Z,27.70
2023-01-21T00:33:00.030Z,29.50
2023-01-21T00:36:11.779Z,21.80
2023-01-21T00:39:18.566Z,29.30
2023-01-21T00:42:27.912Z,29.80
2023-01-21T00:45:34.658Z,29.70
2023-01-21T00:48:41.822Z,28.40
2023-01-21T00:51:48.843Z,29.60
2023-01-21T00:54:55.650Z,29.70
2023-01-21T00:58:02.496Z,28.90
2023-01-21T01:01:12.693Z,35.90
2023-01-21T01:04:20.120Z,30.80
2023-01-21T01:07:27.113Z,32.50
2023-01-21T01:10:33.886Z,28.90
2023-01-21T01:13:41.207Z,26.70
2023-01-21T01:16:47.926Z,32.60
2023-01-21T01:19:54.806Z,33.10
2023-01-21T01:23:01.818Z,35.00
2023-01-21T01:26:12.120Z,35.80
2023-01-21T01:29:19.288Z,31.30
2023-01-21T01:32:26.279Z,43.70
2023-01-21T01:35:33.937Z,39.20
2023-01-21T01:38:41.123Z,35.90
2023-01-21T01:41:47.929Z,40.30
2023-01-21T01:45:04.146Z,38.00
2023-01-21T01:48:14.121Z,31.00
2023-01-21T01:51:24.189Z,38.60
2023-01-21T01:54:34.698Z,31.10
2023-01-21T01:57:46.719Z,34.50
2023-01-21T02:00:53.546Z,39.60
2023-01-21T02:04:02.811Z,38.60
2023-01-21T02:07:12.613Z,40.70
2023-01-21T02:10:22.637Z,33.90
2023-01-21T02:13:33.252Z,27.00
2023-01-21T02:17:04.316Z,33.60
2023-01-21T02:20:40.501Z,31.80
2023-01-21T02:24:08.734Z,37.20
2023-01-21T02:27:54.981Z,31.60
2023-01-21T02:31:29.609Z,37.90
2023-01-21T02:34:44.835Z,30.40
2023-01-21T02:38:00.460Z,34.80
2023-01-21T02:41:14.969Z,33.80
2023-01-21T02:44:28.563Z,35.20
2023-01-21T02:47:44.897Z,26.70
2023-01-21T02:50:54.044Z,32.10
2023-01-21T02:54:00.658Z,27.40
2023-01-21T02:57:08.204Z,28.50
2023-01-21T03:00:20.865Z,27.80
2023-01-21T03:03:56.163Z,28.20
2023-01-21T03:07:09.603Z,27.10
2023-01-21T03:10:28.569Z,35.70
2023-01-21T03:13:59.230Z,34.50
2023-01-21T03:17:13.264Z,33.40
2023-01-21T03:20:26.595Z,31.00
2023-01-21T03:23:37.596Z,30.70
2023-01-21T03:26:51.949Z,29.70
2023-01-21T03:30:03.321Z,28.90
2023-01-21T03:33:11.489Z,26.60
2023-01-21T03:36:27.925Z,35.40
2023-01-21T03:39:43.558Z,32.30
2023-01-21T03:42:53.783Z,25.70
2023-01-21T03:46:05.755Z,28.30
2023-01-21T03:49:17.482Z,31.50
2023-01-21T03:52:26.367Z,32.60
2023-01-21T03:55:33.066Z,36.90
2023-01-21T03:58:39.926Z,29.50
2023-01-21T04:01:46.638Z,25.00
2023-01-21T04:04:54.074Z,28.50
2023-01-21T04:08:00.986Z,27.20
2023-01-21T04:11:08.328Z,36.40
2023-01-21T04:14:15.040Z,34.60
2023-01-21T04:17:21.925Z,28.70
2023-01-21T04:20:29.121Z,31.40
2023-01-21T04:23:35.838Z,25.90
2023-01-21T04:26:42.604Z,20.20
2023-01-21T04:29:51.556Z,24.10
2023-01-21T04:32:58.287Z,25.00
2023-01-21T04:36:05.549Z,29.40
2023-01-21T04:39:12.495Z,28.30
2023-01-21T04:42:19.311Z,26.10
2023-01-21T04:45:26.326Z,24.80
2023-01-21T04:48:33.364Z,18.20
2023-01-21T04:51:40.083Z,34.90
2023-01-21T04:54:46.890Z,25.80
2023-01-21T04:57:53.763Z,27.40
2023-01-21T05:01:00.672Z,25.80
2023-01-21T05:04:07.803Z,24.80
2023-01-21T05:07:14.905Z,23.60
2023-01-21T05:10:22.106Z,26.40
2023-01-21T05:13:28.781Z,37.00
2023-01-21T05:16:35.542Z,30.00
2023-01-21T05:19:42.432Z,24.40
2023-01-21T05:22:50.274Z,24.80
2023-01-21T05:25:57.149Z,24.60
2023-01-21T05:29:04.035Z,34.90
2023-01-21T05:32:11.625Z,30.80
2023-01-21T05:35:20.337Z,29.90
2023-01-21T05:38:26.996Z,26.50
2023-01-21T05:41:34.124Z,24.30
2023-01-21T05:44:40.956Z,26.10
2023-01-21T05:47:47.923Z,25.10
2023-01-21T05:50:57.352Z,23.70
2023-01-21T05:54:05.155Z,26.80
2023-01-21T05:57:11.928Z,28.70
2023-01-21T06:00:20.493Z,22.20
2023-01-21T06:03:27.853Z,25.80
2023-01-21T06:06:34.646Z,30.00
2023-01-21T06:09:41.302Z,21.90
2023-01-21T06:12:50.707Z,23.90
2023-01-21T06:15:58.688Z,30.10
2023-01-21T06:19:05.433Z,21.80
2023-01-21T06:22:15.807Z,27.20
2023-01-21T06:25:22.542Z,26.80
2023-01-21T06:28:29.906Z,22.50
2023-01-21T06:31:36.759Z,20.50
2023-01-21T06:34:45.779Z,25.00
2023-01-21T06:37:53.537Z,20.50
2023-01-21T06:41:00.571Z,23.30
2023-01-21T06:44:08.369Z,22.20
2023-01-21T06:47:15.703Z,22.20
2023-01-21T06:50:22.890Z,19.30
2023-01-21T06:53:29.870Z,20.20
2023-01-21T06:56:36.983Z,20.00
2023-01-21T06:59:44.005Z,21.80
2023-01-21T07:02:50.861Z,17.90
2023-01-21T07:05:58.217Z,20.80
2023-01-21T07:09:05.647Z,20.30
2023-01-21T07:12:13.358Z,17.90
2023-01-21T07:15:20.662Z,19.60
2023-01-21T07:18:27.525Z,18.50
2023-01-21T07:21:34.481Z,21.80
2023-01-21T07:24:41.543Z,16.80
2023-01-21T07:27:48.548Z,20.10
2023-01-21T07:30:55.339Z,24.00
2023-01-21T07:34:02.647Z,17.90
2023-01-21T07:37:09.573Z,17.80
2023-01-21T07:40:17.139Z,19.70
2023-01-21T07:43:23.954Z,19.90
2023-01-21T07:46:33.372Z,18.40
2023-01-21T07:49:40.905Z,21.20
2023-01-21T07:52:47.732Z,18.70
2023-01-21T07:55:54.506Z,17.10
2023-01-21T07:59:01.124Z,18.10
2023-01-21T08:02:08.088Z,16.20
2023-01-21T08:05:15.221Z,15.10
2023-01-21T08:08:22.131Z,15.20
2023-01-21T08:11:29.102Z,18.40
2023-01-21T08:14:38.719Z,19.20
2023-01-21T08:20:54.604Z,15.90
2023-01-21T08:24:01.507Z,16.50
2023-01-21T08:27:08.475Z,19.60
2023-01-21T08:30:16.839Z,15.20
2023-01-21T08:33:23.707Z,16.70
2023-01-21T08:36:30.555Z,15.60
2023-01-21T08:39:37.669Z,15.90
2023-01-21T08:42:44.417Z,15.70
2023-01-21T08:45:51.503Z,19.10
2023-01-21T08:48:58.271Z,15.50
2023-01-21T08:52:05.190Z,13.00
2023-01-21T08:55:12.459Z,18.40
2023-01-21T08:58:19.102Z,17.80
2023-01-21T09:01:26.778Z,16.10
2023-01-21T09:04:33.815Z,18.40
2023-01-21T09:07:42.703Z,14.00
2023-01-21T09:11:05.506Z,13.50
2023-01-21T09:14:12.495Z,19.70
2023-01-21T09:17:19.297Z,15.50
2023-01-21T09:20:25.982Z,16.80
2023-01-21T09:23:34.466Z,16.50
2023-01-21T09:26:45.291Z,14.30
2023-01-21T09:29:52.102Z,12.20
2023-01-21T09:32:58.831Z,16.20
2023-01-21T09:36:07.951Z,16.90
2023-01-21T09:39:14.728Z,14.90
2023-01-21T09:42:26.465Z,17.40
2023-01-21T09:45:33.349Z,10.80
2023-01-21T09:48:43.462Z,15.10
2023-01-21T09:51:55.303Z,17.50
2023-01-21T09:55:02.576Z,11.70
2023-01-21T09:58:24.746Z,14.10
2023-01-21T10:01:35.875Z,12.30
2023-01-21T10:04:50.210Z,16.60
2023-01-21T10:08:06.179Z,16.60
2023-01-21T10:11:31.417Z,19.20
2023-01-21T10:15:08.243Z,14.10
2023-01-21T10:18:18.597Z,12.90
2023-01-21T10:21:36.286Z,15.60
2023-01-21T10:24:48.978Z,20.80
2023-01-21T10:27:57.767Z,17.30
2023-01-21T10:31:12.713Z,13.90
2023-01-21T10:34:21.032Z,16.10
2023-01-21T10:37:38.095Z,17.60
2023-01-21T10:40:56.802Z,19.00
2023-01-21T10:44:14.306Z,18.50
2023-01-21T10:47:33.962Z,15.80
2023-01-21T10:50:49.453Z,20.10
2023-01-21T10:54:01.646Z,18.30
2023-01-21T10:57:23.615Z,19.50
2023-01-21T11:00:33.924Z,19.10
2023-01-21T11:03:43.526Z,18.10
2023-01-21T11:09:57.769Z,13.80
2023-01-21T11:13:06.066Z,14.20
2023-01-21T11:16:12.959Z,14.80
2023-01-21T11:19:23.368Z,16.90
2023-01-21T11:22:32.678Z,9.40
2023-01-21T11:25:42.094Z,14.80
2023-01-21T11:28:52.039Z,15.80
2023-01-21T11:32:06.858Z,15.20
2023-01-21T11:35:24.802Z,13.00
2023-01-21T11:38:38.304Z,14.50
2023-01-21T11:41:54.451Z,13.40
2023-01-21T11:45:05.917Z,10.70
2023-01-21T11:48:27.454Z,9.30
2023-01-21T11:51:34.560Z,12.20
2023-01-21T11:54:41.727Z,15.20
2023-01-21T11:57:57.462Z,14.40
2023-01-21T12:01:07.194Z,12.60
2023-01-21T12:04:17.634Z,8.80
2023-01-21T12:07:28.211Z,13.70
2023-01-21T12:10:39.743Z,10.60
2023-01-21T12:14:02.451Z,10.60
